Time;durP1;ratioP1;P1;durP2;ratioP2;P2;SDS_P1;SDS_P2;PMS_P1;PMS_P2;Temp;Humidity;BMP_temperature;BMP_pressure;BME280_temperature;BME280_humidity;BME280_pressure;Samples;Min_cycle;Max_cycle;Signal;HPM_P1;HPM_P2
2023/09/15 00:00:38;;;;;;;9.23;8.23;;;;;;;14.08;100.00;101988.72;5130666;27;20374;-36
2023/09/15 00:03:04;;;;;;;7.80;7.00;;;;;;;14.18;100.00;102002.59;5130920;27;20028;-36
2023/09/15 00:05:29;;;;;;;9.65;8.25;;;;;;;14.00;100.00;101991.72;5131057;27;20752;-36
2023/09/15 00:08:04;;;;;;;;;;;;;;;14.23;100.00;101995.66;5132082;28;20439;-36
2023/09/15 00:10:30;;;;;;;8.15;7.35;;;;;;;14.13;100.00;101997.00;5117084;27;19908;-36
2023/09/15 00:12:56;;;;;;;11.82;8.15;;;;;;;14.12;100.00;101991.81;5117279;28;20140;-36
2023/09/15 00:15:21;;;;;;;;;;;;;;;14.24;100.00;101992.69;5117326;28;20143;-36
2023/09/15 00:17:47;;;;;;;8.38;7.55;;;;;;;14.07;100.00;101989.78;5117115;28;20282;-36
2023/09/15 00:20:13;;;;;;;;;;;;;;;14.23;100.00;101992.94;5117822;28;20377;-36
2023/09/15 00:22:50;;;;;;;10.38;7.93;;;;;;;14.11;100.00;101985.53;5116880;27;19910;-36
2023/09/15 00:25:20;;;;;;;11.63;9.07;;;;;;;13.99;100.00;101990.06;5116782;28;20055;-36
2023/09/15 00:27:50;;;;;;;11.35;8.15;;;;;;;14.03;100.00;101985.00;5117515;28;20343;-36
2023/09/15 00:30:17;;;;;;;9.27;7.65;;;;;;;14.04;100.00;101979.34;5116603;28;20081;-36
2023/09/15 00:32:43;;;;;;;10.30;8.05;;;;;;;13.90;100.00;101973.19;5117180;28;20337;-36
2023/09/15 00:35:09;;;;;;;11.65;9.60;;;;;;;13.95;100.00;101979.84;5116229;28;20460;-36
2023/09/15 00:37:34;;;;;;;;;;;;;;;14.10;100.00;101985.75;5117122;28;20030;-36
2023/09/15 00:39:59;;;;;;;10.65;8.02;;;;;;;13.95;100.00;101977.13;5116450;28;20386;-37
2023/09/15 00:42:25;;;;;;;9.23;7.97;;;;;;;13.92;100.00;101970.28;5116521;28;20475;-37
2023/09/15 00:44:51;;;;;;;;;;;;;;;14.06;100.00;101974.53;5116811;28;20808;-36
2023/09/15 00:47:17;;;;;;;11.05;8.40;;;;;;;13.89;100.00;101970.72;5116574;28;20002;-36
2023/09/15 00:49:44;;;;;;;9.60;8.52;;;;;;;13.92;100.00;101975.72;5116258;28;20153;-36
2023/09/15 00:52:10;;;;;;;11.25;8.18;;;;;;;13.83;100.00;101968.91;5116030;28;20482;-45
2023/09/15 00:54:36;;;;;;;;;;;;;;;14.01;100.00;101973.53;5116853;28;20028;-36
2023/09/15 00:57:02;;;;;;;12.30;8.82;;;;;;;13.77;100.00;101972.53;5115837;28;19930;-36
2023/09/15 00:59:29;;;;;;;8.85;8.02;;;;;;;13.82;100.00;101972.69;5115782;28;20027;-36
2023/09/15 01:01:54;;;;;;;9.15;7.30;;;;;;;13.91;100.00;101965.91;5115313;28;20368;-36
2023/09/15 01:04:20;;;;;;;;;;;;;;;13.95;100.00;101974.41;5116432;28;20020;-36
2023/09/15 01:06:49;;;;;;;9.75;8.73;;;;;;;13.79;100.00;101973.13;5116220;28;19903;-36
2023/09/15 01:09:14;;;;;;;11.88;8.68;;;;;;;13.67;100.00;101953.19;5116156;28;20035;-36
2023/09/15 01:11:40;;;;;;;9.43;7.90;;;;;;;13.79;100.00;101962.25;5115902;28;20080;-36
2023/09/15 01:14:05;;;;;;;9.18;7.93;;;;;;;13.79;100.00;101959.53;5116006;28;20340;-36
2023/09/15 01:16:42;;;;;;;10.07;8.77;;;;;;;13.72;100.00;101956.91;5115460;28;20500;-36
2023/09/15 01:19:31;;;;;;;9.38;8.35;;;;;;;13.70;100.00;101955.44;5115661;28;20023;-36
2023/09/15 01:22:24;;;;;;;12.25;8.65;;;;;;;13.58;100.00;101950.75;5114009;28;20106;-36
2023/09/15 01:24:58;;;;;;;9.52;7.53;;;;;;;13.63;100.00;101953.63;5115560;28;20471;-36
2023/09/15 01:27:43;;;;;;;9.13;8.18;;;;;;;13.48;100.00;101960.47;5116137;28;20027;-36
2023/09/15 01:30:10;;;;;;;11.98;9.45;;;;;;;13.41;100.00;101955.09;5115871;28;20020;-36
2023/09/15 01:32:36;;;;;;;9.93;8.23;;;;;;;13.47;100.00;101953.34;5115702;28;20455;-36
2023/09/15 01:35:02;;;;;;;;;;;;;;;13.57;100.00;101954.53;5115804;27;20020;-36
2023/09/15 01:37:27;;;;;;;11.10;9.07;;;;;;;13.36;100.00;101936.72;5115920;27;19908;-36
2023/09/15 01:39:53;;;;;;;;;;;;;;;13.53;100.00;101950.59;5115726;28;20133;-36
2023/09/15 01:42:18;;;;;;;12.73;9.73;;;;;;;13.37;100.00;101937.56;5115260;28;19949;-36
2023/09/15 01:44:43;;;;;;;10.75;8.98;;;;;;;13.38;100.00;101931.94;5115165;28;20334;-36
2023/09/15 01:47:14;;;;;;;10.20;9.05;;;;;;;13.31;100.00;101935.75;5115826;28;20059;-36
2023/09/15 01:49:41;;;;;;;9.75;7.93;;;;;;;13.36;100.00;101934.00;5115463;28;20110;-36
2023/09/15 01:52:07;;;;;;;10.07;8.68;;;;;;;13.28;100.00;101938.94;5115044;28;20073;-36
2023/09/15 01:54:32;;;;;;;;;;;;;;;13.41;100.00;101936.06;5115758;28;20020;-36
2023/09/15 01:56:58;;;;;;;10.13;8.50;;;;;;;13.20;100.00;101925.59;5115478;28;19908;-36
2023/09/15 01:59:23;;;;;;;10.48;9.23;;;;;;;13.25;100.00;101931.22;5115512;28;20510;-36
2023/09/15 02:01:49;;;;;;;11.13;9.00;;;;;;;13.22;100.00;101934.34;5114676;28;20042;-36
2023/09/15 02:04:14;;;;;;;9.05;8.15;;;;;;;13.26;100.00;101930.16;5114547;28;20071;-36
2023/09/15 02:06:39;;;;;;;9.65;8.45;;;;;;;13.19;100.00;101938.34;5115359;28;20051;-36
2023/09/15 02:09:05;;;;;;;11.35;9.15;;;;;;;13.17;100.00;101939.59;5114441;28;20059;-36
2023/09/15 02:11:31;;;;;;;11.13;9.30;;;;;;;13.12;100.00;101938.38;5115290;28;20023;-36
2023/09/15 02:13:56;;;;;;;8.82;7.93;;;;;;;13.14;100.00;101928.13;5114667;28;20023;-36
2023/09/15 02:16:21;;;;;;;11.80;7.40;;;;;;;13.16;100.00;101919.75;5115160;28;20022;-36
2023/09/15 02:18:47;;;;;;;;;;;;;;;13.28;100.00;101931.59;5115562;28;20055;-36
2023/09/15 02:21:12;;;;;;;9.63;8.60;;;;;;;13.10;100.00;101931.50;5114758;28;19956;-36
2023/09/15 02:23:37;;;;;;;10.00;8.10;;;;;;;13.04;100.00;101935.94;5115113;28;20458;-36
2023/09/15 02:26:03;;;;;;;9.70;8.63;;;;;;;12.98;100.00;101923.25;5114726;28;20261;-36
2023/09/15 02:28:29;;;;;;;;;;;;;;;13.15;100.00;101927.06;5114877;28;20102;-36
2023/09/15 02:30:55;;;;;;;7.65;6.78;;;;;;;13.12;100.00;101930.22;5114902;28;20014;-36
2023/09/15 02:33:22;;;;;;;10.13;8.60;;;;;;;13.05;100.00;101926.75;5114421;28;20164;-36
2023/09/15 02:35:47;;;;;;;11.35;8.60;;;;;;;12.98;100.00;101912.41;5114247;28;20023;-36
2023/09/15 02:38:13;;;;;;;;;;;;;;;13.15;100.00;101923.53;5114682;28;20020;-36
2023/09/15 02:40:38;;;;;;;11.27;8.87;;;;;;;12.98;100.00;101906.97;5114304;28;19996;-36
2023/09/15 02:43:03;;;;;;;8.83;7.93;;;;;;;13.04;100.00;101919.66;5114335;28;20295;-36
2023/09/15 02:45:29;;;;;;;10.73;8.07;;;;;;;12.97;100.00;101910.72;5114167;28;20277;-36
2023/09/15 02:47:54;;;;;;;9.70;8.30;;;;;;;12.98;100.00;101917.84;5114442;28;20301;-36
2023/09/15 02:50:19;;;;;;;9.27;7.47;;;;;;;12.98;100.00;101912.41;5114126;28;20809;-36
2023/09/15 02:52:45;;;;;;;10.25;8.02;;;;;;;12.89;100.00;101908.28;5114695;28;20024;-36
2023/09/15 02:55:10;;;;;;;10.82;7.88;;;;;;;12.89;100.00;101916.44;5114637;28;20031;-36
2023/09/15 02:57:35;;;;;;;10.48;8.02;;;;;;;12.87;100.00;101913.09;5113584;28;20051;-36
2023/09/15 03:00:01;;;;;;;8.95;8.05;;;;;;;12.85;100.00;101917.91;5114064;28;20046;-36
2023/09/15 03:02:26;;;;;;;9.57;8.50;;;;;;;12.87;100.00;101913.09;5114092;28;20027;-36
2023/09/15 03:04:51;;;;;;;10.32;8.27;;;;;;;12.78;100.00;101917.13;5114015;28;20024;-36
2023/09/15 03:07:17;;;;;;;;;;;;;;;12.93;100.00;101914.09;5115307;28;20031;-36
2023/09/15 03:09:43;;;;;;;7.97;7.10;;;;;;;12.79;100.00;101897.09;5113659;28;19914;-36
2023/09/15 03:12:08;;;;;;;9.02;8.07;;;;;;;12.76;100.00;101908.38;5114795;28;20364;-36
2023/09/15 03:14:34;;;;;;;;;;;;;;;12.90;100.00;101904.53;5114674;28;20072;-36
2023/09/15 03:16:59;;;;;;;8.70;7.67;;;;;;;12.74;100.00;101911.31;5114185;28;20026;-36
2023/09/15 03:19:25;;;;;;;8.43;7.57;;;;;;;12.73;100.00;101906.09;5113894;28;20297;-36
2023/09/15 03:21:50;;;;;;;9.85;6.97;;;;;;;12.70;100.00;101898.41;5113492;28;20428;-36
2023/09/15 03:24:16;;;;;;;11.02;6.85;;;;;;;12.68;100.00;101908.63;5113630;28;20494;-36
2023/09/15 03:26:41;;;;;;;9.93;7.75;;;;;;;12.51;100.00;101901.03;5114169;28;20034;-36
2023/09/15 03:29:07;;;;;;;8.70;7.53;;;;;;;12.48;100.00;101900.63;5113510;28;20023;-36
2023/09/15 03:31:32;;;;;;;10.48;7.25;;;;;;;12.49;100.00;101902.28;5114358;28;20030;-35
2023/09/15 03:33:58;;;;;;;8.25;7.45;;;;;;;12.48;100.00;101900.63;5113488;28;20535;-36
2023/09/15 03:36:26;;;;;;;8.00;7.03;;;;;;;12.52;100.00;101899.97;5114002;28;20022;-36
2023/09/15 03:38:51;;;;;;;8.65;6.80;;;;;;;12.28;100.00;101893.44;5113910;28;20023;-35
2023/09/15 03:41:17;;;;;;;;;;;;;;;12.54;100.00;101895.19;5114384;28;20020;-36
2023/09/15 03:43:42;;;;;;;8.27;7.10;;;;;;;12.41;100.00;101894.41;5114605;28;19964;-35
2023/09/15 03:46:07;;;;;;;8.52;7.72;;;;;;;12.34;100.00;101879.00;5117593;28;20056;-36
2023/09/15 03:48:33;;;;;;;8.95;8.07;;;;;;;12.28;100.00;101879.03;5117859;28;20052;-36
2023/09/15 03:50:58;;;;;;;8.00;7.18;;;;;;;12.36;100.00;101886.94;5117477;28;20094;-36
2023/09/15 03:53:23;;;;;;;7.65;6.85;;;;;;;12.30;100.00;101880.50;5117218;28;20045;-36
2023/09/15 03:55:49;;;;;;;9.30;7.50;;;;;;;12.22;100.00;101879.91;5117399;28;20474;-36
2023/09/15 03:58:15;;;;;;;9.10;7.57;;;;;;;12.32;100.00;101885.69;5117719;28;20044;-36
2023/09/15 04:00:41;;;;;;;8.35;7.25;;;;;;;12.29;100.00;101881.53;5117182;28;20102;-36
2023/09/15 04:03:06;;;;;;;8.10;7.07;;;;;;;12.32;100.00;101885.69;5116937;28;20106;-36
2023/09/15 04:05:32;;;;;;;10.32;7.55;;;;;;;12.27;100.00;101894.47;5117109;28;20020;-36
2023/09/15 04:07:57;;;;;;;6.90;6.22;;;;;;;12.31;100.00;101889.47;5116934;28;20461;-35
2023/09/15 04:10:23;;;;;;;7.17;6.33;;;;;;;12.34;100.00;101884.41;5116833;28;20055;-36
2023/09/15 04:12:49;;;;;;;7.75;7.03;;;;;;;12.26;100.00;101887.41;5116743;28;20249;-36
2023/09/15 04:15:15;;;;;;;7.70;6.90;;;;;;;12.30;100.00;101885.91;5117811;28;20026;-36
2023/09/15 04:17:41;;;;;;;8.48;6.85;;;;;;;12.19;100.00;101869.50;5116904;28;20080;-35
2023/09/15 04:20:09;;;;;;;;;;;;;;;12.40;100.00;101877.31;5117270;28;20068;-35
2023/09/15 04:22:36;;;;;;;8.13;6.22;;;;;;;12.33;100.00;101866.47;5117063;27;19927;-35
2023/09/15 04:25:02;;;;;;;8.45;6.88;;;;;;;12.29;100.00;101867.97;5117033;28;20355;-36
2023/09/15 04:27:28;;;;;;;10.43;7.32;;;;;;;12.30;100.00;101872.38;5117293;28;20027;-36
2023/09/15 04:29:55;;;;;;;10.50;7.90;;;;;;;12.12;100.00;101866.81;5116889;28;20026;-36
2023/09/15 04:32:21;;;;;;;9.50;7.20;;;;;;;12.18;100.00;101873.25;5116380;28;20032;-36
2023/09/15 04:34:46;;;;;;;9.13;7.75;;;;;;;12.18;100.00;101873.25;5116905;28;20015;-36
2023/09/15 04:37:12;;;;;;;8.40;7.50;;;;;;;12.22;100.00;101869.91;5116475;27;20051;-36
2023/09/15 04:39:38;;;;;;;8.43;6.75;;;;;;;12.16;100.00;101875.38;5116815;27;20031;-36
2023/09/15 04:42:04;;;;;;;8.50;7.60;;;;;;;12.17;100.00;101868.88;5117309;28;20015;-36
2023/09/15 04:44:30;;;;;;;10.68;7.20;;;;;;;12.23;100.00;101865.31;5116063;28;20046;-36
2023/09/15 04:46:55;;;;;;;9.57;7.65;;;;;;;12.10;100.00;101860.75;5117216;28;20059;-36
2023/09/15 04:49:21;;;;;;;8.55;7.65;;;;;;;12.09;100.00;101869.94;5117062;28;20058;-36
2023/09/15 04:51:47;;;;;;;10.63;8.40;;;;;;;12.07;100.00;101872.06;5116000;28;20031;-36
2023/09/15 04:54:12;;;;;;;9.35;7.95;;;;;;;12.04;100.00;101867.88;5115908;28;20020;-35
2023/09/15 04:56:37;;;;;;;8.30;7.15;;;;;;;12.16;100.00;101878.06;5116243;28;20076;-36
2023/09/15 04:59:03;;;;;;;10.13;7.68;;;;;;;12.06;100.00;101876.66;5115804;28;20374;-36
2023/09/15 05:01:29;;;;;;;9.15;7.53;;;;;;;12.11;100.00;101878.72;5116263;28;20106;-36
2023/09/15 05:03:54;;;;;;;11.73;7.78;;;;;;;12.06;100.00;101876.66;5116165;28;20084;-36
2023/09/15 05:06:19;;;;;;;10.07;8.13;;;;;;;12.03;100.00;101874.38;5115668;28;20030;-37
2023/09/15 05:08:45;;;;;;;9.52;7.40;;;;;;;12.09;100.00;101870.78;5115813;28;20032;-36
2023/09/15 05:11:10;;;;;;;10.05;7.93;;;;;;;12.04;100.00;101880.63;5115220;28;20015;-36
2023/09/15 05:13:36;;;;;;;12.23;8.57;;;;;;;11.97;100.00;101886.06;5115293;28;20045;-36
2023/09/15 05:16:02;;;;;;;9.47;8.23;;;;;;;11.97;100.00;101883.38;5115550;28;20058;-36
2023/09/15 05:18:30;;;;;;;11.40;8.45;;;;;;;11.97;100.00;101887.97;5115842;28;20785;-36
2023/09/15 05:20:55;;;;;;;9.23;8.10;;;;;;;12.01;100.00;101889.19;5115548;28;20027;-36
2023/09/15 05:23:20;;;;;;;9.75;7.60;;;;;;;12.06;100.00;101890.22;5115008;28;20512;-36
2023/09/15 05:25:49;;;;;;;10.47;7.40;;;;;;;12.01;100.00;101892.72;5115338;28;20019;-36
2023/09/15 05:28:15;;;;;;;10.07;8.57;;;;;;;11.92;100.00;101893.19;5116465;28;20253;-37
2023/09/15 05:30:40;;;;;;;13.95;7.90;;;;;;;11.93;100.00;101897.56;5115520;28;20023;-36
2023/09/15 05:33:08;;;;;;;8.18;6.80;;;;;;;12.00;100.00;101874.78;5116004;28;20019;-35
2023/09/15 05:35:34;;;;;;;9.27;6.97;;;;;;;12.03;100.00;101892.50;5115076;28;20027;-35
2023/09/15 05:37:59;;;;;;;12.25;7.88;;;;;;;11.97;100.00;101882.53;5115903;28;20027;-35
2023/09/15 05:40:25;;;;;;;9.52;7.25;;;;;;;12.02;100.00;101897.09;5115609;27;20020;-35
2023/09/15 05:42:51;;;;;;;10.73;7.13;;;;;;;12.06;100.00;101895.63;5115516;28;20457;-35
2023/09/15 05:45:16;;;;;;;11.57;7.53;;;;;;;12.09;100.00;101902.50;5115435;28;20265;-36
2023/09/15 05:47:42;;;;;;;9.13;7.28;;;;;;;12.14;100.00;101899.13;5115576;28;20413;-35
2023/09/15 05:50:07;;;;;;;10.43;6.85;;;;;;;12.20;100.00;101884.69;5115108;28;20409;-36
2023/09/15 05:52:33;;;;;;;8.80;6.75;;;;;;;12.21;100.00;101883.69;5115469;28;20051;-35
2023/09/15 05:54:58;;;;;;;8.82;6.45;;;;;;;12.36;100.00;101897.78;5115624;28;20023;-36
2023/09/15 05:57:24;;;;;;;7.40;6.00;;;;;;;12.41;100.00;101884.41;5114599;28;20028;-36
2023/09/15 05:59:50;;;;;;;9.27;7.05;;;;;;;12.38;100.00;101898.38;5114488;28;20043;-36
2023/09/15 06:02:15;;;;;;;;;;;;;;;12.54;100.00;101895.19;5116237;28;20115;-36
2023/09/15 06:04:42;;;;;;;8.35;6.30;;;;;;;12.37;100.00;101892.13;5114834;28;20006;-35
2023/09/15 06:07:08;;;;;;;7.22;5.97;;;;;;;12.58;100.00;101899.09;5115181;28;20031;-35
2023/09/15 06:09:33;;;;;;;7.47;6.65;;;;;;;12.65;100.00;101904.50;5115051;28;20359;-35
2023/09/15 06:11:59;;;;;;;9.57;6.45;;;;;;;12.66;100.00;101894.47;5114756;28;20058;-35
2023/09/15 06:14:24;;;;;;;7.35;6.32;;;;;;;12.71;100.00;101900.06;5114956;28;20015;-36
2023/09/15 06:16:49;;;;;;;8.85;6.43;;;;;;;12.67;100.00;101901.56;5114481;28;20413;-36
2023/09/15 06:19:15;;;;;;;;;;;;;;;12.84;100.00;101910.84;5114963;28;20016;-36
2023/09/15 06:21:40;;;;;;;8.55;6.97;;;;;;;12.71;100.00;101911.75;5114557;28;19914;-36
2023/09/15 06:24:06;;;;;;;7.93;5.97;;;;;;;12.70;100.00;101901.13;5114124;28;20042;-36
2023/09/15 06:26:32;;;;;;;7.78;6.20;;;;;;;12.87;100.00;101902.22;5114206;28;20106;-36
2023/09/15 06:28:58;;;;;;;10.73;6.90;;;;;;;12.75;100.00;101901.28;5114075;28;20027;-36
2023/09/15 06:31:23;;;;;;;10.37;6.03;;;;;;;12.84;100.00;101905.41;5115025;28;20020;-36
2023/09/15 06:33:49;;;;;;;7.53;6.63;;;;;;;12.85;100.00;101899.75;5113975;28;20636;-36
2023/09/15 06:36:15;;;;;;;8.70;6.13;;;;;;;12.87;100.00;101899.53;5114070;28;20021;-36
2023/09/15 06:38:40;;;;;;;9.30;7.00;;;;;;;12.70;100.00;101898.41;5114193;28;20041;-36
2023/09/15 06:41:06;;;;;;;8.82;6.13;;;;;;;12.81;100.00;101895.81;5114301;28;20024;-36
2023/09/15 06:43:31;;;;;;;8.97;6.13;;;;;;;12.75;100.00;101890.44;5114073;28;20102;-36
2023/09/15 06:45:57;;;;;;;13.27;6.53;;;;;;;12.86;100.00;101897.88;5114005;28;20334;-35
2023/09/15 06:48:22;;;;;;;;;;;;;;;13.00;100.00;101891.28;5114348;28;20474;-36
2023/09/15 06:50:48;;;;;;;7.18;5.53;;;;;;;13.09;100.00;101889.94;5114722;28;19904;-36
2023/09/15 06:53:13;;;;;;;7.80;6.20;;;;;;;13.07;100.00;101883.91;5114720;28;20451;-36
2023/09/15 06:55:39;;;;;;;6.82;5.90;;;;;;;13.16;100.00;101876.31;5114142;28;20019;-36
2023/09/15 06:58:04;;;;;;;10.52;6.25;;;;;;;13.13;100.00;101865.91;5114232;28;20467;-35
2023/09/15 07:00:30;;;;;;;8.68;6.70;;;;;;;13.25;100.00;101879.59;5114059;28;20571;-35
2023/09/15 07:02:55;;;;;;;8.43;6.18;;;;;;;13.21;100.00;101878.34;5114329;28;20051;-36
2023/09/15 07:05:20;;;;;;;8.80;5.95;;;;;;;13.32;100.00;101880.34;5113984;28;20020;-36
2023/09/15 07:07:46;;;;;;;7.18;5.85;;;;;;;13.40;100.00;101888.22;5114305;28;20023;-36
2023/09/15 07:10:11;;;;;;;6.72;5.32;;;;;;;13.55;100.00;101879.72;5113982;28;20478;-35
2023/09/15 07:12:37;;;;;;;8.00;5.80;;;;;;;13.58;100.00;101877.38;5114231;28;20044;-36
2023/09/15 07:15:04;;;;;;;6.63;5.50;;;;;;;13.60;100.00;101877.16;5113962;28;20024;-36
2023/09/15 07:17:29;;;;;;;7.68;5.38;;;;;;;13.71;100.00;101881.81;5114436;28;20024;-36
2023/09/15 07:19:55;;;;;;;;;;;;;;;13.83;100.00;101877.31;5116243;28;20055;-36
2023/09/15 07:22:20;;;;;;;8.50;6.50;;;;;;;13.75;100.00;101880.31;5117784;28;19950;-36
2023/09/15 07:24:45;;;;;;;7.25;5.53;;;;;;;13.81;100.00;101874.00;5117966;28;20261;-36
2023/09/15 07:27:11;;;;;;;7.50;5.60;;;;;;;13.81;100.00;101878.56;5118232;28;20024;-36
2023/09/15 07:29:39;;;;;;;6.07;5.47;;;;;;;13.87;100.00;101869.53;5118121;28;20119;-36
2023/09/15 07:32:05;;;;;;;6.88;5.00;;;;;;;14.04;100.00;101862.38;5118618;28;20015;-36
2023/09/15 07:34:30;;;;;;;9.27;6.05;;;;;;;14.00;100.00;101850.31;5117820;28;20420;-36
2023/09/15 07:36:55;;;;;;;;;;;;;;;14.25;100.00;101863.81;5118161;28;20019;-36
2023/09/15 07:39:21;;;;;;;7.50;5.40;;;;;;;14.09;100.00;101848.94;5117316;28;19907;-36
2023/09/15 07:41:46;;;;;;;;;;;;;;;14.27;100.00;101856.22;5118922;28;20033;-36
2023/09/15 07:44:13;;;;;;;8.52;5.53;;;;;;;14.24;100.00;101853.97;5117589;28;19904;-36
2023/09/15 07:46:39;;;;;;;7.80;5.05;;;;;;;14.38;100.00;101857.31;5117516;28;20102;-36
2023/09/15 07:49:05;;;;;;;8.45;5.60;;;;;;;14.41;100.00;101856.88;5117714;28;20110;-37
2023/09/15 07:51:30;;;;;;;;;;;;;;;14.58;100.00;101854.34;5118179;28;20427;-36
2023/09/15 07:53:55;;;;;;;6.90;5.03;;;;;;;14.58;100.00;101852.44;5117680;28;20255;-36
2023/09/15 07:56:21;;;;;;;7.35;5.13;;;;;;;14.74;100.00;101852.81;5117940;27;20336;-36
2023/09/15 07:58:46;;;;;;;6.90;5.40;;;;;;;14.81;100.00;101853.56;5117396;28;20375;-36
2023/09/15 08:01:12;;;;;;;8.60;5.40;;;;;;;14.97;100.00;101850.13;5117314;28;20038;-37
2023/09/15 08:03:38;;;;;;;;;;;;;;;15.08;100.00;101854.78;5117454;28;20051;-36
2023/09/15 08:06:05;;;;;;;6.43;4.50;;;;;;;15.03;100.00;101846.50;5117419;28;19908;-36
2023/09/15 08:08:30;;;;;;;8.25;5.25;;;;;;;15.11;100.00;101845.28;5117468;28;20031;-36
2023/09/15 08:10:56;;;;;;;9.73;5.40;;;;;;;15.13;100.00;101840.44;5117844;28;20035;-36
2023/09/15 08:13:21;;;;;;;;;;;;;;;15.33;100.00;101848.25;5117177;28;20019;-36
2023/09/15 08:15:51;;;;;;;8.48;5.07;;;;;;;15.35;100.00;101844.22;5115765;28;19907;-37
2023/09/15 08:18:17;;;;;;;6.88;4.95;;;;;;;15.42;100.00;101844.06;5116680;28;20019;-37
2023/09/15 08:20:42;;;;;;;7.65;5.10;;;;;;;15.54;100.00;101846.81;5116892;28;20360;-36
2023/09/15 08:23:08;;;;;;;10.43;5.53;;;;;;;15.61;100.00;101851.03;5117454;28;20055;-36
2023/09/15 08:25:33;;;;;;;;;;;;;;;15.72;100.00;101854.03;5117538;28;20026;-36
2023/09/15 08:27:59;;;;;;;6.97;4.70;;;;;;;15.74;100.00;101838.25;5117074;28;19910;-36
2023/09/15 08:30:25;;;;;;;6.00;5.10;;;;;;;15.68;100.00;101831.88;5115891;28;20265;-36
2023/09/15 08:32:50;;;;;;;11.82;4.80;;;;;;;15.93;100.00;101842.47;5116431;28;20023;-36
2023/09/15 08:35:15;;;;;;;;;;;;;;;16.05;100.00;101845.13;5116977;28;20027;-36
2023/09/15 08:37:41;;;;;;;10.07;4.97;;;;;;;16.02;100.00;101845.66;5116209;28;19995;-37
2023/09/15 08:40:06;;;;;;;;;;;;;;;16.09;100.00;101841.69;5117275;28;20027;-36
2023/09/15 08:42:32;;;;;;;6.85;4.63;;;;;;;16.12;100.00;101841.22;5116581;28;19904;-36
2023/09/15 08:44:58;;;;;;;;;;;;;;;16.26;100.00;101840.91;5116513;28;20023;-36
2023/09/15 08:47:27;;;;;;;6.75;4.70;;;;;;;16.19;100.00;101835.59;5116403;28;19947;-36
2023/09/15 08:49:53;;;;;;;8.88;5.55;;;;;;;16.33;100.00;101836.13;5116302;28;20092;-36
2023/09/15 08:52:18;;;;;;;;;;;;;;;16.41;100.00;101839.28;5116826;28;20099;-36
2023/09/15 08:54:47;;;;;;;7.55;4.70;;;;;;;16.43;100.00;101839.84;5116527;28;19910;-36
2023/09/15 08:57:13;;;;;;;7.70;4.97;;;;;;;16.31;100.00;101841.00;5116414;28;20032;-36
2023/09/15 08:59:40;;;;;;;9.80;5.47;;;;;;;16.31;100.00;101835.56;5116691;28;20443;-36
2023/09/15 09:02:09;;;;;;;5.85;4.47;;;;;;;16.47;100.00;101826.56;5116179;28;20037;-36
2023/09/15 09:04:35;;;;;;;7.78;4.80;;;;;;;16.67;100.00;101823.34;5116082;28;20060;-36
2023/09/15 09:07:02;;;;;;;;;;;;;;;16.87;100.00;101815.50;5116761;28;20106;-36
2023/09/15 09:09:29;;;;;;;5.00;4.00;;;;;;;16.93;100.00;101822.72;5115691;28;19915;-36
2023/09/15 09:11:54;;;;;;;7.22;4.35;;;;;;;17.07;100.00;101812.25;5116688;27;20258;-36
2023/09/15 09:14:19;;;;;;;;;;;;;;;17.16;100.00;101818.13;5116244;28;20080;-36
2023/09/15 09:16:47;;;;;;;5.77;3.90;;;;;;;17.23;100.00;101818.78;5116180;28;19908;-37
2023/09/15 09:19:12;;;;;;;5.95;4.30;;;;;;;17.38;100.00;101823.63;5115952;28;20312;-37
2023/09/15 09:21:38;;;;;;;;;;;;;;;17.60;100.00;101824.44;5116230;28;20023;-37
2023/09/15 09:24:04;;;;;;;7.68;5.28;;;;;;;17.51;100.00;101817.78;5115612;28;19903;-37
2023/09/15 09:26:29;;;;;;;;;;;;;;;17.68;100.00;101815.00;5116056;28;20042;-37
2023/09/15 09:28:57;;;;;;;6.20;4.47;;;;;;;17.63;100.00;101812.19;5115466;28;19904;-37
2023/09/15 09:31:24;;;;;;;5.50;4.35;;;;;;;17.73;100.00;101813.16;5115816;28;20023;-37
2023/09/15 09:33:50;;;;;;;4.78;4.35;;;;;;;17.80;100.00;101806.66;5115436;28;20023;-37
2023/09/15 09:36:16;;;;;;;;;;;;;;;17.98;100.00;101803.59;5116193;28;20019;-37
2023/09/15 09:38:43;;;;;;;6.47;5.03;;;;;;;18.09;100.00;101808.09;5115362;28;19907;-37
2023/09/15 09:41:12;;;;;;;8.77;4.65;;;;;;;18.13;100.00;101811.97;5114745;28;20398;-37
2023/09/15 09:43:39;;;;;;;7.28;4.53;;;;;;;18.26;100.00;101792.41;5115153;28;20115;-37
2023/09/15 09:46:06;;;;;;;7.03;4.07;;;;;;;18.42;100.00;101809.78;5115258;28;20077;-37
2023/09/15 09:48:33;;;;;;;8.85;4.00;;;;;;;18.59;100.00;101812.38;5115202;28;20039;-37
2023/09/15 09:51:03;;;;;;;5.75;3.83;;;;;;;18.64;100.00;101801.50;5115657;28;20079;-37
2023/09/15 09:53:32;;;;;;;5.25;4.18;;;;;;;18.58;97.89;101802.53;5114843;28;20012;-37
2023/09/15 09:55:58;;;;;;;8.35;4.15;;;;;;;18.74;100.00;101796.13;5115027;28;20023;-37
2023/09/15 09:58:24;;;;;;;6.03;4.22;;;;;;;18.79;100.00;101800.81;5114898;28;20452;-37
2023/09/15 10:00:50;;;;;;;;;;;;;;;19.06;100.00;101797.97;5115426;28;20076;-37
2023/09/15 10:03:20;;;;;;;8.67;4.40;;;;;;;19.14;97.88;101794.75;5115262;28;19908;-37
2023/09/15 10:05:47;;;;;;;8.55;4.22;;;;;;;19.35;99.99;101805.81;5115708;28;20027;-37
2023/09/15 10:08:13;;;;;;;6.82;4.72;;;;;;;19.46;99.01;101791.03;5114876;28;20134;-37
2023/09/15 10:10:41;;;;;;;8.50;4.35;;;;;;;19.56;99.14;101791.09;5114752;28;20478;-37
2023/09/15 10:13:08;;;;;;;6.28;4.35;;;;;;;19.42;96.59;101785.28;5115626;27;20383;-37
2023/09/15 10:15:44;;;;;;;7.35;4.70;;;;;;;19.53;98.66;101780.66;5115274;28;20023;-37
2023/09/15 10:18:12;;;;;;;5.65;4.28;;;;;;;19.57;95.74;101773.56;5114708;28;20160;-37
2023/09/15 10:20:58;;;;;;;6.22;4.32;;;;;;;19.66;97.64;101774.69;5114588;28;20059;-37
2023/09/15 10:23:26;;;;;;;6.63;4.43;;;;;;;19.65;94.97;101770.31;5114655;28;20066;-37
2023/09/15 10:25:53;;;;;;;5.47;4.03;;;;;;;19.66;96.78;101773.88;5114204;28;20034;-40
2023/09/15 10:28:23;;;;;;;6.45;4.82;;;;;;;19.84;98.46;101764.34;5115162;28;20028;-37
2023/09/15 10:30:53;;;;;;;5.35;4.55;;;;;;;19.84;96.11;101754.16;5114459;28;20019;-37
2023/09/15 10:33:23;;;;;;;8.73;4.32;;;;;;;20.01;99.01;101760.25;5115306;28;20027;-37
2023/09/15 10:35:48;;;;;;;5.35;4.47;;;;;;;20.09;93.11;101756.13;5114371;28;20111;-37
2023/09/15 10:38:26;;;;;;;5.95;4.15;;;;;;;20.18;94.65;101760.00;5114853;28;20099;-37
2023/09/15 10:40:51;;;;;;;6.25;4.18;;;;;;;20.32;93.79;101754.78;5114400;28;20035;-37
2023/09/15 10:43:17;;;;;;;6.28;4.68;;;;;;;20.28;93.20;101751.75;5115134;28;20397;-37
2023/09/15 10:46:02;;;;;;;5.78;4.22;;;;;;;20.37;96.13;101745.72;5114206;28;20026;-37
2023/09/15 10:48:42;;;;;;;5.28;4.15;;;;;;;20.34;93.50;101744.34;5115093;28;20034;-37
2023/09/15 10:51:09;;;;;;;5.40;4.05;;;;;;;20.48;92.83;101744.66;5114130;28;20030;-36
2023/09/15 10:53:44;;;;;;;5.25;4.40;;;;;;;20.57;95.67;101738.31;5114059;28;20401;-36
2023/09/15 10:56:11;;;;;;;5.78;4.90;;;;;;;20.68;90.13;101741.88;5114160;28;20031;-35
2023/09/15 10:58:37;;;;;;;5.45;4.05;;;;;;;20.81;90.27;101730.31;5113024;28;20375;-36
2023/09/15 11:01:03;;;;;;;4.68;4.00;;;;;;;20.81;88.40;101730.31;5114029;28;20065;-36
2023/09/15 11:03:29;;;;;;;5.45;4.03;;;;;;;20.94;89.98;101722.59;5114088;28;20024;-36
2023/09/15 11:05:55;;;;;;;4.93;4.25;;;;;;;20.90;88.74;101724.25;5114309;28;20019;-36
2023/09/15 11:08:22;;;;;;;5.55;4.00;;;;;;;20.91;87.18;101720.41;5114124;28;20382;-36
2023/09/15 11:11:03;;;;;;;6.70;4.07;;;;;;;20.89;87.18;101720.69;5114055;28;20044;-36
2023/09/15 11:13:29;;;;;;;4.90;3.90;;;;;;;21.11;87.86;101717.59;5113973;28;20020;-37
2023/09/15 11:15:54;;;;;;;5.20;3.58;;;;;;;21.20;87.30;101715.91;5114461;28;20024;-36
2023/09/15 11:18:20;;;;;;;4.32;3.70;;;;;;;21.40;89.63;101715.00;5114392;28;20451;-36
2023/09/15 11:20:45;;;;;;;4.80;3.58;;;;;;;21.31;86.95;101706.53;5113863;28;20044;-37